Time;durP1;ratioP1;P1;durP2;ratioP2;P2;SDS_P1;SDS_P2;PMS_P1;PMS_P2;Temp;Humidity;BMP_temperature;BMP_pressure;BME280_temperature;BME280_humidity;BME280_pressure;Samples;Min_cycle;Max_cycle;Signal;HPM_P1;HPM_P2
2023/03/02 00:01:44;;;;;;;30.50;19.10;;;;;;;-0.40;100.00;96319.97;5050986;28;20459;-79
2023/03/02 00:04:38;;;;;;;38.93;21.33;;;;;;;-0.26;100.00;96313.09;5050123;28;20497;-79
2023/03/02 00:07:08;;;;;;;33.17;20.05;;;;;;;-0.30;100.00;96313.38;5067437;28;20485;-79
2023/03/02 00:09:35;;;;;;;36.83;21.93;;;;;;;-0.33;100.00;96313.56;5067637;28;20486;-79
2023/03/02 00:12:14;;;;;;;39.33;21.07;;;;;;;-0.42;100.00;96314.09;5032013;28;20460;-79
2023/03/02 00:14:41;;;;;;;35.60;19.50;;;;;;;-0.45;100.00;96317.69;5067700;28;20475;-80
2023/03/02 00:17:09;;;;;;;33.30;20.87;;;;;;;-0.43;100.00;96309.84;5053101;28;20520;-79
2023/03/02 00:19:36;;;;;;;34.60;21.03;;;;;;;-0.44;100.00;96314.16;5034632;28;20467;-79
2023/03/02 00:22:02;;;;;;;34.90;20.87;;;;;;;-0.49;100.00;96318.78;5056783;28;20032;-79
2023/03/02 00:24:28;;;;;;;32.43;19.87;;;;;;;-0.51;100.00;96311.09;5050671;28;20988;-79
2023/03/02 00:26:54;;;;;;;35.60;20.30;;;;;;;-0.49;100.00;96311.03;5049894;28;20463;-79
2023/03/02 00:29:20;;;;;;;33.33;21.00;;;;;;;-0.55;100.00;96319.13;5066998;28;20518;-79
2023/03/02 00:31:46;;;;;;;37.83;21.10;;;;;;;-0.55;100.00;96316.56;5049947;28;20441;-79
2023/03/02 00:34:12;;;;;;;35.73;20.93;;;;;;;-0.50;100.00;96311.97;5069380;28;20071;-79
2023/03/02 00:36:38;;;;;;;36.70;20.77;;;;;;;-0.50;100.00;96305.03;5055459;28;20052;-78
2023/03/02 00:39:04;;;;;;;34.30;19.20;;;;;;;-0.61;100.00;96307.41;5050298;28;20474;-78
2023/03/02 00:41:30;;;;;;;35.27;19.17;;;;;;;-0.53;100.00;96296.63;5048441;28;20455;-79
2023/03/02 00:43:56;;;;;;;35.10;21.40;;;;;;;-0.49;100.00;96295.53;5069573;28;20116;-79
2023/03/02 00:46:23;;;;;;;34.13;20.33;;;;;;;-0.50;100.00;96293.88;5082627;28;20109;-79
2023/03/02 00:48:50;;;;;;;37.80;21.53;;;;;;;-0.51;100.00;96295.59;5046786;28;20455;-79
2023/03/02 00:51:16;;;;;;;33.30;19.87;;;;;;;-0.48;100.00;96302.34;5049219;28;20456;-79
2023/03/02 00:53:43;;;;;;;38.07;22.07;;;;;;;-0.56;100.00;96294.22;5057216;28;21017;-79
2023/03/02 00:56:09;;;;;;;40.47;23.33;;;;;;;-0.54;100.00;96297.53;5051017;28;20444;-79
2023/03/02 00:58:39;;;;;;;36.53;20.17;;;;;;;-0.62;100.00;96294.59;5066948;28;20477;-79
2023/03/02 01:01:09;;;;;;;35.50;19.43;;;;;;;-0.61;100.00;96296.25;5066445;28;20454;-79
2023/03/02 01:03:37;;;;;;;36.13;21.40;;;;;;;-0.62;100.00;96295.41;5066263;28;20491;-79
2023/03/02 01:06:05;;;;;;;35.90;21.23;;;;;;;-0.65;100.00;96285.25;5066499;28;20467;-78
2023/03/02 01:08:31;;;;;;;39.80;22.07;;;;;;;-0.61;100.00;96285.91;5046556;28;20474;-79
2023/03/02 01:11:00;;;;;;;34.07;19.70;;;;;;;-0.66;100.00;96286.19;5063717;28;20439;-78
2023/03/02 01:13:27;;;;;;;36.13;20.30;;;;;;;-0.64;100.00;96274.00;5050127;28;20471;-79
2023/03/02 01:16:04;;;;;;;36.57;20.03;;;;;;;-0.68;100.00;96275.09;5066995;28;21054;-79
2023/03/02 01:18:31;;;;;;;37.93;20.50;;;;;;;-0.72;100.00;96274.44;5045086;28;20478;-79
2023/03/02 01:21:09;;;;;;;36.40;21.60;;;;;;;-0.73;100.00;96272.81;5059417;28;20463;-79
2023/03/02 01:23:41;;;;;;;39.37;20.53;;;;;;;-0.74;100.00;96263.41;5088757;28;21272;-79
2023/03/02 01:26:07;;;;;;;34.93;19.60;;;;;;;-0.75;100.00;96258.31;5048363;28;20466;-79
2023/03/02 01:28:33;;;;;;;36.63;22.07;;;;;;;-0.77;100.00;96257.56;5082642;28;20475;-79
2023/03/02 01:31:11;;;;;;;37.60;22.00;;;;;;;-0.81;100.00;96251.75;5049198;28;20064;-79
2023/03/02 01:33:37;;;;;;;35.80;19.23;;;;;;;-0.85;100.00;96247.69;5079683;28;20167;-79
2023/03/02 01:36:03;;;;;;;39.10;20.67;;;;;;;-0.83;100.00;96252.78;5059521;28;20884;-79
2023/03/02 01:38:29;;;;;;;38.53;21.67;;;;;;;-0.87;100.00;96243.53;5032752;28;20033;-79
2023/03/02 01:41:02;;;;;;;37.47;21.60;;;;;;;-0.85;100.00;96252.03;5032598;28;20554;-79
2023/03/02 01:43:28;;;;;;;33.72;20.23;;;;;;;-0.91;100.00;96242.03;5049591;28;20029;-78
2023/03/02 01:46:00;;;;;;;35.93;21.10;;;;;;;-0.89;100.00;96245.38;5049634;28;20372;-79
2023/03/02 01:49:02;;;;;;;36.10;20.63;;;;;;;-0.94;100.00;96245.63;5058367;28;20467;-79
2023/03/02 01:51:46;;;;;;;36.90;19.23;;;;;;;-0.93;100.00;96249.06;5046381;28;20082;-79
2023/03/02 01:54:16;;;;;;;31.07;17.83;;;;;;;-1.01;100.00;96234.81;5051844;28;21336;-79
2023/03/02 01:56:44;;;;;;;34.47;19.70;;;;;;;-1.03;100.00;96243.59;5048513;28;20459;-78
2023/03/02 01:59:17;;;;;;;36.17;20.90;;;;;;;-0.96;100.00;96237.16;5048400;28;20451;-79
2023/03/02 02:01:46;;;;;;;36.73;20.80;;;;;;;-0.98;100.00;96226.91;5028949;28;21300;-79
2023/03/02 02:04:13;;;;;;;36.77;20.87;;;;;;;-1.05;100.00;96227.34;5079957;28;21059;-78
2023/03/02 02:06:46;;;;;;;34.77;20.07;;;;;;;-1.06;100.00;96228.28;5043350;28;21024;-79
2023/03/02 02:09:16;;;;;;;37.55;20.88;;;;;;;-1.07;100.00;96216.31;5047735;28;20471;-79
2023/03/02 02:11:43;;;;;;;36.63;19.07;;;;;;;-0.99;100.00;96212.34;5051344;28;20041;-79
2023/03/02 02:14:09;;;;;;;38.23;19.00;;;;;;;-1.03;100.00;96213.44;5047791;28;20467;-79
2023/03/02 02:16:36;;;;;;;33.93;19.60;;;;;;;-1.09;100.00;96220.72;5056630;28;20455;-79
2023/03/02 02:19:25;;;;;;;31.63;19.07;;;;;;;-1.06;100.00;96211.03;5049685;28;20032;-78
2023/03/02 02:21:50;;;;;;;33.87;18.97;;;;;;;-1.08;100.00;96209.47;5064526;28;20475;-79
2023/03/02 02:24:52;;;;;;;36.47;19.40;;;;;;;-1.12;100.00;96208.00;5068744;28;20481;-79
2023/03/02 02:27:17;;;;;;;37.17;20.17;;;;;;;-1.07;100.00;96203.41;5013689;28;20048;-79
2023/03/02 02:29:48;;;;;;;33.63;18.80;;;;;;;-1.09;100.00;96200.06;5027310;28;20451;-79
2023/03/02 02:32:25;;;;;;;38.83;20.53;;;;;;;-1.13;100.00;96203.75;5033154;28;20487;-79
2023/03/02 02:35:10;;;;;;;35.97;20.00;;;;;;;-1.22;100.00;96200.78;5056328;28;20520;-79
2023/03/02 02:37:44;;;;;;;39.07;20.70;;;;;;;-1.16;100.00;96201.34;5048428;28;20486;-79
2023/03/02 02:40:18;;;;;;;33.97;19.27;;;;;;;-1.20;100.00;96196.38;5034450;28;20612;-79
2023/03/02 02:42:49;;;;;;;34.70;19.87;;;;;;;-1.20;100.00;96191.19;5044248;28;20460;-79
2023/03/02 02:45:25;;;;;;;34.70;19.00;;;;;;;-1.12;100.00;96197.66;5031602;28;20616;-79
2023/03/02 02:47:53;;;;;;;42.07;21.73;;;;;;;-1.16;100.00;96193.59;5048041;28;20547;-79
2023/03/02 02:50:39;;;;;;;34.77;19.57;;;;;;;-1.17;100.00;96191.94;5047515;28;20486;-79
2023/03/02 02:53:19;;;;;;;35.50;19.63;;;;;;;-1.19;100.00;96189.44;5051515;28;20452;-79
2023/03/02 02:55:48;;;;;;;34.27;19.90;;;;;;;-1.23;100.00;96191.38;5068158;28;20475;-78
2023/03/02 02:58:46;;;;;;;37.33;20.97;;;;;;;-1.30;100.00;96190.06;5065132;28;20538;-78
2023/03/02 03:01:26;;;;;;;36.47;19.27;;;;;;;-1.33;100.00;96197.97;5038465;28;20554;-79
2023/03/02 03:04:00;;;;;;;36.73;19.90;;;;;;;-1.29;100.00;96191.72;5047518;28;20502;-79
2023/03/02 03:06:36;;;;;;;33.63;19.00;;;;;;;-1.29;100.00;96193.47;5059111;28;20466;-79
2023/03/02 03:09:05;;;;;;;35.37;19.70;;;;;;;-1.34;100.00;96204.06;5055696;28;20462;-79
2023/03/02 03:12:01;;;;;;;36.10;20.00;;;;;;;-1.37;100.00;96191.34;5032089;28;21002;-79
2023/03/02 03:14:33;;;;;;;34.03;19.00;;;;;;;-1.43;100.00;96191.69;5070512;28;20056;-79
2023/03/02 03:16:59;;;;;;;35.53;19.93;;;;;;;-1.44;100.00;96200.34;5037563;28;21047;-79
2023/03/02 03:19:27;;;;;;;36.33;20.90;;;;;;;-1.47;100.00;96197.94;5048939;28;20455;-78
2023/03/02 03:21:57;;;;;;;41.40;20.73;;;;;;;-1.49;100.00;96195.44;5031588;28;20029;-78
2023/03/02 03:24:25;;;;;;;36.83;19.53;;;;;;;-1.40;100.00;96188.94;5053641;28;20502;-78
2023/03/02 03:26:55;;;;;;;35.63;19.10;;;;;;;-1.45;100.00;96190.94;5037328;28;20455;-79
2023/03/02 03:29:23;;;;;;;35.90;18.97;;;;;;;-1.46;100.00;96194.44;5054154;28;20524;-79
2023/03/02 03:31:51;;;;;;;35.97;19.87;;;;;;;-1.45;100.00;96196.09;5071140;28;20494;-79
2023/03/02 03:34:18;;;;;;;34.07;19.33;;;;;;;-1.46;100.00;96191.84;5049067;28;20463;-79
2023/03/02 03:36:44;;;;;;;42.70;22.13;;;;;;;-1.54;100.00;96192.31;5070362;28;20482;-79
2023/03/02 03:39:11;;;;;;;37.83;20.80;;;;;;;-1.55;100.00;96205.25;5053927;28;20546;-79
2023/03/02 03:41:39;;;;;;;37.27;20.10;;;;;;;-1.52;100.00;96197.34;5053378;28;20486;-79
2023/03/02 03:44:06;;;;;;;37.40;20.60;;;;;;;-1.55;100.00;96194.94;5053475;28;20489;-79
2023/03/02 03:46:34;;;;;;;33.77;18.47;;;;;;;-1.53;100.00;96198.28;5053904;28;21081;-79
2023/03/02 03:49:00;;;;;;;38.40;19.20;;;;;;;-1.54;100.00;96194.88;5070320;28;20451;-79
2023/03/02 03:51:27;;;;;;;37.23;20.13;;;;;;;-1.49;100.00;96192.84;5036653;28;20439;-79
2023/03/02 03:53:59;;;;;;;38.97;20.07;;;;;;;-1.51;100.00;96194.72;5053394;28;20534;-79
2023/03/02 03:56:30;;;;;;;38.83;19.90;;;;;;;-1.54;100.00;96199.19;5034285;28;20463;-79
2023/03/02 03:59:05;;;;;;;36.07;20.07;;;;;;;-1.49;100.00;96199.75;5067305;28;20478;-78
2023/03/02 04:01:44;;;;;;;38.30;21.07;;;;;;;-1.50;100.00;96196.38;5052718;28;20471;-79
2023/03/02 04:04:16;;;;;;;36.23;19.63;;;;;;;-1.49;100.00;96194.59;5034844;28;20487;-79
2023/03/02 04:06:43;;;;;;;35.97;20.50;;;;;;;-1.54;100.00;96194.03;5063393;28;20528;-78
2023/03/02 04:09:11;;;;;;;37.53;20.27;;;;;;;-1.52;100.00;96194.78;5041939;28;20594;-79
2023/03/02 04:11:48;;;;;;;37.23;20.27;;;;;;;-1.45;100.00;96193.50;5034026;28;20868;-78
2023/03/02 04:14:17;;;;;;;35.43;19.87;;;;;;;-1.44;100.00;96200.34;5050853;28;20460;-79
2023/03/02 04:16:43;;;;;;;34.43;20.07;;;;;;;-1.44;100.00;96206.34;5050650;28;21004;-79
2023/03/02 04:19:11;;;;;;;39.77;19.67;;;;;;;-1.48;100.00;96207.41;5067109;28;20478;-78
2023/03/02 04:21:57;;;;;;;33.83;19.90;;;;;;;-1.48;100.00;96199.66;5053118;28;20553;-79
2023/03/02 04:24:23;;;;;;;;;;;;;;;-1.47;100.00;96208.25;5050444;28;20495;-78
2023/03/02 04:26:51;;;;;;;30.40;17.43;;;;;;;-1.42;100.00;96203.66;5050453;28;19948;-79
2023/03/02 04:29:17;;;;;;;35.90;18.53;;;;;;;-1.49;100.00;96207.50;5053222;28;20786;-79
2023/03/02 04:31:47;;;;;;;33.17;18.60;;;;;;;-1.45;100.00;96204.66;5055107;28;20508;-79
2023/03/02 04:34:13;;;;;;;44.53;19.83;;;;;;;-1.44;100.00;96200.34;5053210;28;20054;-78
2023/03/02 04:36:42;;;;;;;41.83;19.43;;;;;;;-1.46;100.00;96199.59;5046016;28;20447;-79
2023/03/02 04:39:14;;;;;;;36.87;19.03;;;;;;;-1.53;100.00;96208.59;5040361;28;20464;-79
2023/03/02 04:41:43;;;;;;;37.93;19.83;;;;;;;-1.46;100.00;96203.00;5050435;28;20489;-79
2023/03/02 04:44:09;;;;;;;34.87;19.17;;;;;;;-1.37;100.00;96204.25;5052010;28;20471;-79
2023/03/02 04:46:35;;;;;;;41.03;20.40;;;;;;;-1.43;100.00;96202.84;5068417;28;20462;-79
2023/03/02 04:49:03;;;;;;;30.40;16.63;;;;;;;-1.40;100.00;96207.00;5051400;28;20988;-79
2023/03/02 04:51:35;;;;;;;35.60;19.23;;;;;;;-1.46;100.00;96207.34;5051251;28;20029;-78
2023/03/02 04:54:06;;;;;;;35.13;17.93;;;;;;;-1.50;100.00;96198.94;5051011;28;20468;-79
2023/03/02 04:56:33;;;;;;;34.07;18.10;;;;;;;-1.46;100.00;96207.34;5054092;28;21020;-79
2023/03/02 04:58:59;;;;;;;41.43;20.23;;;;;;;-1.49;100.00;96210.91;5049858;28;20482;-79
2023/03/02 05:02:20;;;;;;;36.63;20.77;;;;;;;-1.52;100.00;96200.75;5049938;28;20467;-78
2023/03/02 05:04:46;;;;;;;35.80;18.37;;;;;;;-1.55;100.00;96192.38;5052405;28;20108;-79
2023/03/02 05:07:11;;;;;;;35.47;19.10;;;;;;;-1.52;100.00;96195.59;5033756;28;20558;-79
2023/03/02 05:09:46;;;;;;;36.17;18.77;;;;;;;-1.51;100.00;96194.72;5066693;28;20151;-78
2023/03/02 05:12:12;;;;;;;36.10;18.70;;;;;;;-1.54;100.00;96191.44;5039879;28;20043;-78
2023/03/02 05:14:44;;;;;;;32.87;17.17;;;;;;;-1.49;100.00;96197.19;5049978;28;20452;-79
2023/03/02 05:17:09;;;;;;;38.40;19.03;;;;;;;-1.55;100.00;96192.38;5064544;28;20029;-78
2023/03/02 05:19:35;;;;;;;32.27;18.47;;;;;;;-1.59;100.00;96194.28;5049882;28;20794;-79
2023/03/02 05:22:14;;;;;;;36.20;18.53;;;;;;;-1.55;100.00;96188.03;5033050;28;20059;-78
2023/03/02 05:24:40;;;;;;;33.97;18.73;;;;;;;-1.62;100.00;96193.63;5069079;28;20045;-79
2023/03/02 05:27:07;;;;;;;38.47;20.03;;;;;;;-1.60;100.00;96182.31;5065962;28;20547;-78
2023/03/02 05:29:33;;;;;;;37.00;19.90;;;;;;;-1.58;100.00;96189.97;5025586;28;20462;-77
2023/03/02 05:31:59;;;;;;;41.20;20.20;;;;;;;-1.56;100.00;96182.97;5040936;28;20475;-79
2023/03/02 05:34:24;;;;;;;33.57;18.47;;;;;;;-1.62;100.00;96189.31;5027201;28;20055;-78
2023/03/02 05:36:57;;;;;;;30.40;17.10;;;;;;;-1.59;100.00;96188.31;5023128;28;20041;-78
2023/03/02 05:39:22;;;;;;;40.00;19.47;;;;;;;-1.44;100.00;96193.44;5056004;28;20565;-79
2023/03/02 05:41:48;;;;;;;33.20;17.07;;;;;;;-1.50;100.00;96190.38;5040182;28;20469;-79
2023/03/02 05:44:20;;;;;;;39.00;18.63;;;;;;;-1.73;100.00;96189.09;5025258;28;20057;-79
2023/03/02 05:46:46;;;;;;;31.70;17.37;;;;;;;-1.67;100.00;96199.06;5010507;28;20033;-79
2023/03/02 05:49:12;;;;;;;33.77;18.43;;;;;;;-1.70;100.00;96204.38;4990336;28;20454;-79
2023/03/02 05:51:39;;;;;;;34.47;19.27;;;;;;;-1.77;100.00;96203.88;4979054;28;20463;-79
2023/03/02 05:54:05;;;;;;;36.07;19.17;;;;;;;-1.75;100.00;96202.03;4939425;28;20036;-79
2023/03/02 05:56:34;;;;;;;35.27;20.10;;;;;;;-1.72;100.00;96201.88;4940049;28;20447;-79
2023/03/02 05:59:00;;;;;;;32.97;18.63;;;;;;;-1.76;100.00;96205.53;4941079;28;20047;-79
2023/03/02 06:01:25;;;;;;;32.47;18.37;;;;;;;-1.66;100.00;96204.13;4971863;28;20570;-80
2023/03/02 06:03:51;;;;;;;33.63;17.40;;;;;;;-1.67;100.00;96199.88;4968389;28;20041;-78
2023/03/02 06:06:17;;;;;;;34.30;17.57;;;;;;;-1.71;100.00;96203.56;4966784;28;20397;-79
2023/03/02 06:08:47;;;;;;;35.33;18.67;;;;;;;-1.76;100.00;96208.13;4953661;28;20041;-79
2023/03/02 06:11:12;;;;;;;35.40;18.47;;;;;;;-1.72;100.00;96207.03;4970676;28;20044;-79
2023/03/02 06:13:41;;;;;;;35.30;18.43;;;;;;;-1.56;100.00;96204.44;4986407;28;20510;-78
2023/03/02 06:16:07;;;;;;;33.20;16.70;;;;;;;-1.48;100.00;96216.91;4995736;28;20087;-79
2023/03/02 06:18:37;;;;;;;30.67;18.13;;;;;;;-1.42;100.00;96208.81;4965071;28;20996;-78
2023/03/02 06:21:03;;;;;;;34.73;18.53;;;;;;;-1.25;100.00;96213.84;4987447;28;21332;-80
2023/03/02 06:24:13;;;;;;;36.37;17.00;;;;;;;-1.12;100.00;96208.00;5033219;28;20463;-79
2023/03/02 06:26:39;;;;;;;34.83;17.87;;;;;;;-0.88;100.00;96208.31;5047670;28;20471;-80
2023/03/02 06:29:08;;;;;;;34.03;17.77;;;;;;;-0.60;100.00;96207.53;5044840;28;20637;-80
2023/03/02 06:31:34;;;;;;;32.13;17.43;;;;;;;-0.46;100.00;96212.69;5029031;28;20048;-79
2023/03/02 06:34:00;;;;;;;31.27;17.50;;;;;;;-0.28;100.00;96208.16;5035461;28;20459;-79
2023/03/02 06:36:26;;;;;;;34.60;18.37;;;;;;;-0.24;100.00;96210.44;5033927;28;20562;-80
2023/03/02 06:38:52;;;;;;;30.57;17.53;;;;;;;0.05;100.00;96205.25;5019863;28;21118;-80
2023/03/02 06:41:18;;;;;;;34.10;16.83;;;;;;;0.23;100.00;96214.44;5029887;28;21043;-79
2023/03/02 06:43:44;;;;;;;34.50;19.37;;;;;;;0.22;100.00;96207.59;5033404;28;20613;-80
2023/03/02 06:46:10;;;;;;;38.10;23.50;;;;;;;0.32;100.00;96199.28;5038568;28;20565;-80
2023/03/02 06:48:37;;;;;;;38.73;19.53;;;;;;;0.39;100.00;96206.53;5041952;28;20047;-80
2023/03/02 06:51:02;;;;;;;29.10;16.60;;;;;;;0.74;100.00;96206.03;5021356;28;20487;-79
2023/03/02 06:53:28;;;;;;;30.70;17.27;;;;;;;0.88;100.00;96213.72;5005895;28;20481;-79
2023/03/02 06:56:07;;;;;;;34.20;17.87;;;;;;;0.67;100.00;96208.19;5006156;28;20128;-80
2023/03/02 06:58:32;;;;;;;29.97;16.53;;;;;;;0.83;100.00;96205.41;5008217;28;20064;-79
2023/03/02 07:00:58;;;;;;;29.57;16.33;;;;;;;1.25;100.00;96213.06;5030945;28;21045;-80
2023/03/02 07:03:24;;;;;;;28.00;16.67;;;;;;;1.47;100.00;96202.06;5048113;28;20044;-80
2023/03/02 07:05:51;;;;;;;28.20;16.47;;;;;;;1.63;100.00;96208.69;5039562;28;20446;-80
2023/03/02 07:08:23;;;;;;;31.87;16.67;;;;;;;1.75;100.00;96214.81;5048312;28;20036;-79
2023/03/02 07:10:48;;;;;;;28.50;15.60;;;;;;;2.01;100.00;96215.59;5047975;28;20459;-79
2023/03/02 07:13:14;;;;;;;31.03;16.90;;;;;;;2.04;100.00;96211.94;5050447;28;20454;-80
2023/03/02 07:15:40;;;;;;;27.97;15.03;;;;;;;2.32;100.00;96206.47;5038339;28;20037;-79
2023/03/02 07:18:06;;;;;;;27.00;15.63;;;;;;;2.35;100.00;96218.41;5048035;28;20031;-80
2023/03/02 07:20:33;;;;;;;27.73;15.10;;;;;;;2.37;100.00;96206.13;5048187;28;20033;-80
2023/03/02 07:22:58;;;;;;;28.53;15.70;;;;;;;3.11;100.00;96211.16;5046788;28;20488;-80
2023/03/02 07:25:24;;;;;;;29.27;17.30;;;;;;;3.43;100.00;96213.97;5030066;28;20507;-80
2023/03/02 07:27:50;;;;;;;28.70;15.60;;;;;;;3.32;100.00;96212.19;5049211;28;20033;-80
2023/03/02 07:30:19;;;;;;;23.73;14.53;;;;;;;4.06;100.00;96204.78;5047255;28;20036;-80
2023/03/02 07:32:46;;;;;;;27.10;15.83;;;;;;;3.95;100.00;96209.97;5032211;28;20079;-80
2023/03/02 07:35:16;;;;;;;26.07;15.67;;;;;;;4.47;100.00;96204.09;5047994;28;20478;-81
2023/03/02 07:37:43;;;;;;;26.50;16.20;;;;;;;4.32;100.00;96218.31;5053398;28;20554;-80
2023/03/02 07:40:10;;;;;;;26.30;15.70;;;;;;;4.25;100.00;96206.75;5066497;28;20502;-80
2023/03/02 07:42:37;;;;;;;27.33;15.57;;;;;;;4.92;100.00;96211.75;5064697;28;20040;-80
2023/03/02 07:45:04;;;;;;;29.37;15.77;;;;;;;5.13;100.00;96205.72;5039988;28;20056;-80
2023/03/02 07:47:31;;;;;;;27.30;15.43;;;;;;;5.40;100.00;96208.69;5047967;28;20039;-80
2023/03/02 07:49:57;;;;;;;30.93;16.07;;;;;;;5.28;100.00;96209.69;5048215;28;20058;-80
2023/03/02 07:52:23;;;;;;;29.77;16.47;;;;;;;5.56;100.00;96212.59;5064277;28;20115;-80
2023/03/02 07:54:49;;;;;;;24.23;15.53;;;;;;;5.74;100.00;96210.25;5047871;28;20506;-81
2023/03/02 07:57:16;;;;;;;28.23;15.30;;;;;;;5.70;100.00;96214.91;5048283;28;20041;-80
2023/03/02 07:59:43;;;;;;;28.20;16.03;;;;;;;5.44;100.00;96210.09;5049889;28;20041;-79
2023/03/02 08:02:13;;;;;;;26.33;16.60;;;;;;;6.08;100.00;96211.66;5067505;28;20044;-80
2023/03/02 08:04:40;;;;;;;24.87;14.77;;;;;;;6.50;100.00;96213.28;5052115;28;20115;-81
2023/03/02 08:07:06;;;;;;;25.07;14.30;;;;;;;7.00;100.00;96210.56;5051255;28;20406;-80
2023/03/02 08:09:31;;;;;;;29.33;15.30;;;;;;;7.09;100.00;96200.13;5051396;28;20029;-80
2023/03/02 08:11:57;;;;;;;24.00;15.27;;;;;;;7.12;100.00;96204.25;5051309;28;20040;-81
2023/03/02 08:14:23;;;;;;;25.60;15.57;;;;;;;7.85;100.00;96201.09;5053682;28;20028;-81
2023/03/02 08:16:51;;;;;;;24.03;15.23;;;;;;;7.94;100.00;96201.03;5048900;28;20147;-81
2023/03/02 08:19:17;;;;;;;24.17;14.97;;;;;;;7.88;100.00;96203.41;5071462;28;20021;-81
2023/03/02 08:21:43;;;;;;;22.73;13.83;;;;;;;7.67;100.00;96198.38;5036991;28;20092;-81
2023/03/02 08:24:10;;;;;;;23.27;13.77;;;;;;;7.69;100.00;96201.69;5034875;28;20033;-80
2023/03/02 08:26:36;;;;;;;25.83;15.60;;;;;;;8.42;100.00;96192.16;5067832;28;20041;-81
2023/03/02 08:29:03;;;;;;;23.57;15.40;;;;;;;8.86;100.00;96201.97;5050969;28;20430;-81
2023/03/02 08:31:29;;;;;;;23.30;14.80;;;;;;;8.61;100.00;96195.63;5050495;28;20056;-81
2023/03/02 08:33:55;;;;;;;22.10;15.13;;;;;;;6.94;100.00;96200.66;5051490;28;20056;-81
2023/03/02 08:36:21;;;;;;;22.47;14.30;;;;;;;8.09;100.00;96193.53;5084557;28;20107;-81
2023/03/02 08:38:47;;;;;;;24.97;14.53;;;;;;;7.36;100.00;96195.16;5051012;28;20064;-82
2023/03/02 08:41:18;;;;;;;21.67;13.37;;;;;;;7.78;100.00;96198.22;5051509;28;20106;-81
2023/03/02 08:43:44;;;;;;;23.00;15.43;;;;;;;9.16;100.00;96190.25;5051041;28;20037;-81
2023/03/02 08:46:14;;;;;;;21.30;14.33;;;;;;;9.68;100.00;96183.25;5075494;28;20024;-81
2023/03/02 08:48:58;;;;;;;22.77;14.47;;;;;;;9.57;100.00;96183.50;5067288;28;20178;-81
2023/03/02 08:51:25;;;;;;;21.60;14.30;;;;;;;9.79;100.00;96173.44;5042293;28;20108;-81
2023/03/02 08:53:54;;;;;;;22.43;13.83;;;;;;;9.01;100.00;96170.78;5049906;28;20040;-81
2023/03/02 08:56:29;;;;;;;26.07;13.97;;;;;;;10.25;100.00;96169.56;5050254;28;20036;-81
2023/03/02 08:58:58;;;;;;;24.30;14.60;;;;;;;10.56;100.00;96156.72;5049586;28;20551;-81
2023/03/02 09:01:31;;;;;;;21.70;14.07;;;;;;;10.92;100.00;96160.88;5041524;28;20114;-81
2023/03/02 09:03:59;;;;;;;21.35;14.15;;;;;;;11.12;100.00;96161.41;5051440;28;20047;-81
2023/03/02 09:06:29;;;;;;;20.77;14.17;;;;;;;11.51;100.00;96161.53;5046783;28;20112;-81
2023/03/02 09:08:55;;;;;;;21.37;14.23;;;;;;;11.78;100.00;96155.88;5047829;28;20179;-81
2023/03/02 09:11:21;;;;;;;17.17;12.63;;;;;;;12.44;95.95;96148.59;5049918;28;20025;-81
2023/03/02 09:13:47;;;;;;;23.03;12.80;;;;;;;11.10;100.00;96153.69;5053900;28;20102;-81
2023/03/02 09:16:13;;;;;;;22.87;13.10;;;;;;;12.22;97.17;96144.09;5039870;28;20049;-81
2023/03/02 09:18:40;;;;;;;19.43;13.13;;;;;;;10.59;100.00;96156.38;5074216;28;20044;-81
2023/03/02 09:21:06;;;;;;;18.93;12.57;;;;;;;9.26;100.00;96167.38;5062802;28;20029;-81
2023/03/02 09:23:35;;;;;;;19.07;12.37;;;;;;;10.04;100.00;96158.66;5057076;28;20044;-81
2023/03/02 09:26:02;;;;;;;19.20;12.97;;;;;;;9.05;100.00;96159.81;5048869;28;20041;-81
2023/03/02 09:28:28;;;;;;;19.83;11.83;;;;;;;10.10;100.00;96161.47;5050544;28;20036;-81
2023/03/02 09:30:58;;;;;;;18.13;12.13;;;;;;;9.91;100.00;96157.28;5066924;28;20036;-81
2023/03/02 09:33:24;;;;;;;16.43;11.03;;;;;;;10.80;100.00;96155.94;5038978;28;20061;-81
2023/03/02 09:35:50;;;;;;;19.00;11.87;;;;;;;11.08;100.00;96150.38;5046107;28;20450;-81
2023/03/02 09:38:17;;;;;;;18.73;11.50;;;;;;;11.78;100.00;96148.00;5049924;28;20071;-81
2023/03/02 09:40:51;;;;;;;19.10;11.80;;;;;;;10.58;100.00;96159.19;5046996;28;20071;-81
2023/03/02 09:43:35;;;;;;;;;;;;;;;11.48;100.00;96154.78;5050631;28;20438;-81
2023/03/02 09:46:42;;;;;;;20.58;11.82;;;;;;;10.59;100.00;96160.81;5050051;28;19964;-81
2023/03/02 09:49:17;;;;;;;21.83;11.83;;;;;;;11.29;100.00;96165.66;5057243;28;20390;-82
2023/03/02 09:52:26;;;;;;;20.03;11.50;;;;;;;9.74;100.00;96178.38;5082653;28;20033;-81
2023/03/02 09:54:52;;;;;;;17.83;11.07;;;;;;;10.51;100.00;96180.03;5046259;28;20037;-81
2023/03/02 09:57:38;;;;;;;18.40;11.00;;;;;;;9.57;100.00;96185.31;5050812;28;20071;-81
2023/03/02 10:00:27;;;;;;;17.17;10.37;;;;;;;10.04;100.00;96185.75;5050460;28;20037;-81
2023/03/02 10:03:07;;;;;;;19.13;11.27;;;;;;;10.91;100.00;96173.22;5033155;28;20041;-81
2023/03/02 10:05:39;;;;;;;18.93;10.97;;;;;;;11.02;100.00;96167.63;5071971;28;20682;-82
2023/03/02 10:08:12;;;;;;;18.67;11.07;;;;;;;11.84;100.00;96175.50;5053729;28;20128;-81
2023/03/02 10:10:45;;;;;;;18.35;11.10;;;;;;;10.98;100.00;96176.84;5048069;28;20029;-81
2023/03/02 10:13:22;;;;;;;23.33;10.68;;;;;;;11.46;100.00;96164.66;5048859;28;20037;-81
2023/03/02 10:15:57;;;;;;;19.73;11.17;;;;;;;10.81;100.00;96175.19;5040466;28;20040;-81
2023/03/02 10:18:44;;;;;;;17.07;11.50;;;;;;;10.96;100.00;96177.97;5075284;28;20062;-81
2023/03/02 10:21:23;;;;;;;18.53;11.60;;;;;;;11.28;100.00;96175.38;5045703;28;20041;-82
2023/03/02 10:24:08;;;;;;;20.97;11.07;;;;;;;11.61;100.00;96174.53;5059165;28;20033;-81
2023/03/02 10:26:46;;;;;;;20.77;11.67;;;;;;;11.31;100.00;96176.88;5047483;28;20064;-81
2023/03/02 10:29:30;;;;;;;17.93;10.63;;;;;;;11.15;100.00;96171.59;5035057;28;20041;-82
2023/03/02 10:32:19;;;;;;;18.07;11.30;;;;;;;11.95;96.71;96167.25;5049767;28;20033;-81
2023/03/02 10:34:47;;;;;;;18.17;12.23;;;;;;;12.45;96.18;96166.06;5022545;28;20033;-81
2023/03/02 10:37:16;;;;;;;17.00;11.00;;;;;;;11.98;100.00;96172.19;5080816;28;20038;-81
2023/03/02 10:39:42;;;;;;;19.60;11.77;;;;;;;9.83;100.00;96174.81;5049532;28;20035;-82
2023/03/02 10:42:15;;;;;;;16.27;10.63;;;;;;;11.13;100.00;96163.03;5048455;28;20467;-82
2023/03/02 10:44:46;;;;;;;18.97;12.30;;;;;;;12.12;99.81;96177.72;5049250;28;20491;-81
2023/03/02 10:47:25;;;;;;;17.77;11.00;;;;;;;12.29;100.00;96152.94;5048257;28;20032;-83
2023/03/02 10:49:53;;;;;;;16.70;10.87;;;;;;;12.57;97.64;96144.56;5052589;28;20040;-82
2023/03/02 10:52:24;;;;;;;17.03;10.53;;;;;;;13.41;92.77;96153.38;5048965;28;20033;-82
2023/03/02 10:55:04;;;;;;;18.03;11.23;;;;;;;12.52;96.74;96152.19;5065415;28;20026;-82
2023/03/02 10:57:36;;;;;;;18.67;12.33;;;;;;;13.62;90.55;96147.44;5048439;28;20063;-82
2023/03/02 11:00:17;;;;;;;19.03;11.60;;;;;;;13.87;87.75;96156.72;5053941;28;20036;-82
2023/03/02 11:03:13;;;;;;;17.87;11.73;;;;;;;14.10;89.03;96145.25;5081981;28;20041;-82
2023/03/02 11:05:43;;;;;;;17.17;10.37;;;;;;;14.55;83.74;96146.03;5023943;28;20170;-83
2023/03/02 11:08:16;;;;;;;19.47;11.93;;;;;;;13.30;90.32;96143.25;5046568;28;20040;-81
2023/03/02 11:10:53;;;;;;;;;;;;;;;13.18;90.20;96140.19;5049922;28;20045;-82
2023/03/02 11:13:27;;;;;;;21.60;14.80;;;;;;;14.06;88.19;96138.69;5056462;28;19934;-82
2023/03/02 11:16:16;;;;;;;18.47;11.97;;;;;;;13.36;93.12;96148.63;5032863;28;20064;-82
2023/03/02 11:18:47;;;;;;;15.30;11.00;;;;;;;13.59;91.18;96140.66;5078738;28;20545;-84
2023/03/02 11:21:21;;;;;;;15.50;10.53;;;;;;;14.11;87.10;96131.84;5047476;28;20037;-83
2023/03/02 11:24:39;;;;;;;16.97;10.70;;;;;;;14.96;81.59;96132.22;5048431;28;20044;-82
2023/03/02 11:27:23;;;;;;;17.27;10.53;;;;;;;13.38;90.12;96144.00;5045780;28;20063;-83
2023/03/02 11:29:56;;;;;;;15.73;10.57;;;;;;;13.75;90.36;96139.69;5065288;28;20029;-83